Time;durP1;ratioP1;P1;durP2;ratioP2;P2;SDS_P1;SDS_P2;PMS_P1;PMS_P2;Temp;Humidity;BMP_temperature;BMP_pressure;BME280_temperature;BME280_humidity;BME280_pressure;Samples;Min_cycle;Max_cycle;Signal;HPM_P1;HPM_P2
2022/09/29 05:26:02;;;;;;;;;;;;;;;16.93;67.96;98388.38;4423464;28;20005;-80
2022/09/29 05:28:29;;;;;;;;;;;;;;;16.54;69.63;98401.78;4255414;33;19977;-81
2022/09/29 05:31:03;;;;;;;;;;;;;;;16.91;68.46;98395.41;4256482;33;20377;-80
2022/09/29 05:33:30;;;;;;;;;;;;;;;17.12;67.40;98394.69;4255326;33;19978;-82
2022/09/29 05:35:57;;;;;;;;;;;;;;;17.12;67.28;98386.84;4264414;33;19993;-80
2022/09/29 05:38:24;;;;;;;;;;;;;;;17.18;67.47;98404.94;4260214;33;20287;-80
2022/09/29 05:40:51;;;;;;;;;;;;;;;17.04;68.14;98399.34;4253951;33;20339;-80
2022/09/29 05:43:18;;;;;;;;;;;;;;;17.19;67.51;98406.66;4253876;33;20034;-79
2022/09/29 05:45:45;;;;;;;;;;;;;;;17.23;67.56;98403.94;4252427;33;20370;-80
2022/09/29 05:48:12;;;;;;;;;;;;;;;17.06;68.33;98405.34;4260913;33;19997;-80
2022/09/29 05:50:42;;;;;;;;;;;;;;;17.30;67.16;98408.06;4254469;33;20015;-80
2022/09/29 05:53:12;;;;;;;;;;;;;;;17.28;67.25;98420.34;4259310;33;19990;-81
2022/09/29 05:55:39;;;;;;;;;;;;;;;17.42;66.63;98418.09;4255321;33;19994;-80
2022/09/29 05:58:06;;;;;;;;;;;;;;;17.37;66.55;98420.88;4259972;33;19985;-81
2022/09/29 06:00:33;;;;;;;;;;;;;;;17.43;66.35;98419.81;4255843;33;20433;-80
2022/09/29 06:03:00;;;;;;;;;;;;;;;17.41;65.97;98416.37;4253111;33;20382;-81
2022/09/29 06:05:27;;;;;;;;;;;;;;;17.39;65.91;98423.44;4262798;33;20046;-81
2022/09/29 06:07:54;;;;;;;;;;;;;;;17.35;66.17;98422.69;4253996;33;19986;-80
2022/09/29 06:10:21;;;;;;;;;;;;;;;17.37;66.39;98425.25;4261619;33;20347;-81
2022/09/29 06:12:48;;;;;;;;;;;;;;;17.30;66.61;98423.75;4259146;33;20041;-80
2022/09/29 06:15:15;;;;;;;;;;;;;;;17.39;66.19;98418.22;4252898;33;20013;-80
2022/09/29 06:17:41;;;;;;;;;;;;;;;17.64;64.46;98423.44;4245833;33;20725;-80
2022/09/29 06:20:09;;;;;;;;;;;;;;;17.25;65.44;98425.66;4249867;33;20013;-79
2022/09/29 06:22:35;;;;;;;;;;;;;;;17.03;66.45;98436.84;4240755;33;20034;-80
2022/09/29 06:25:02;;;;;;;;;;;;;;;17.24;65.48;98430.06;4237631;33;20001;-79
2022/09/29 06:27:29;;;;;;;;;;;;;;;17.09;65.48;98436.63;4249740;33;19998;-80
2022/09/29 06:29:56;;;;;;;;;;;;;;;17.13;64.85;98448.72;4238152;33;20048;-80
2022/09/29 06:32:23;;;;;;;;;;;;;;;17.25;64.54;98441.34;4244504;33;20004;-80
2022/09/29 06:37:36;;;;;;;;;;;;;;;17.01;65.14;98446.50;4245462;33;19994;-80
2022/09/29 06:40:03;;;;;;;;;;;;;;;16.93;65.22;98456.34;4249928;33;19989;-80
2022/09/29 06:42:37;;;;;;;;;;;;;;;16.88;65.81;98458.22;4251800;33;20448;-79
2022/09/29 06:45:04;;;;;;;;;;;;;;;16.95;65.21;98457.16;4239221;33;19982;-80
2022/09/29 06:47:31;;;;;;;;;;;;;;;16.99;64.82;98466.59;4249324;33;20139;-80
2022/09/29 06:50:00;;;;;;;;;;;;;;;16.77;65.69;98466.41;4244670;33;20064;-80
2022/09/29 06:52:34;;;;;;;;;;;;;;;16.87;65.27;98461.75;4243482;33;20296;-81
2022/09/29 06:55:01;;;;;;;;;;;;;;;16.64;65.80;98452.00;4249258;33;20372;-80
2022/09/29 06:57:28;;;;;;;;;;;;;;;16.80;65.87;98450.66;4246978;33;20005;-81
2022/09/29 06:59:54;;;;;;;;;;;;;;;16.95;65.11;98451.94;4238897;33;20047;-81
2022/09/29 07:02:21;;;;;;;;;;;;;;;16.92;65.60;98460.72;4241431;33;19993;-80
2022/09/29 07:04:48;;;;;;;;;;;;;;;16.88;64.93;98458.22;4245426;33;20020;-80
2022/09/29 07:07:15;;;;;;;;;;;;;;;16.93;64.77;98467.63;4250631;33;20000;-80
2022/09/29 07:09:42;;;;;;;;;;;;;;;16.80;64.82;98481.16;4245302;33;19997;-81
2022/09/29 07:12:27;;;;;;;;;;;;;;;17.01;65.04;98480.50;4242168;33;19982;-81
2022/09/29 07:14:54;;;;;;;;;;;;;;;16.88;65.37;98480.03;4244728;33;19982;-80
2022/09/29 07:17:20;;;;;;;;;;;;;;;17.11;63.84;98479.28;4251745;33;19986;-81
2022/09/29 07:19:47;;;;;;;;;;;;;;;16.86;65.16;98480.97;4248255;33;20012;-80
2022/09/29 07:22:14;;;;;;;;;;;;;;;16.79;65.56;98471.63;4240602;33;19978;-84
2022/09/29 07:24:42;;;;;;;;;;;;;;;16.91;64.89;98473.81;4243401;33;20008;-81
2022/09/29 07:27:08;;;;;;;;;;;;;;;16.98;63.79;98475.34;4244393;33;19998;-81
2022/09/29 07:29:35;;;;;;;;;;;;;;;16.88;64.77;98485.25;4251045;33;19990;-81
2022/09/29 07:32:02;;;;;;;;;;;;;;;16.95;64.79;98486.75;4240291;33;20005;-82
2022/09/29 07:34:29;;;;;;;;;;;;;;;17.03;65.62;98489.12;4248080;33;20071;-83
2022/09/29 07:36:56;;;;;;;;;;;;;;;17.02;66.66;98484.81;4238888;33;19994;-81
2022/09/29 07:39:22;;;;;;;;;;;;;;;17.54;64.61;98485.69;4252711;33;19990;-81
2022/09/29 07:41:49;;;;;;;;;;;;;;;17.54;65.17;98490.94;4253337;33;19981;-82
2022/09/29 07:44:16;;;;;;;;;;;;;;;17.67;63.32;98502.69;4251836;33;20004;-81
2022/09/29 07:46:43;;;;;;;;;;;;;;;17.60;63.29;98506.41;4220771;33;863126;-82
2022/09/29 07:49:11;;;;;;;;;;;;;;;17.32;64.40;98510.84;4250394;33;20995;-80
2022/09/29 07:51:38;;;;;;;;;;;;;;;17.62;63.96;98504.63;4240878;33;19989;-79
2022/09/29 07:54:05;;;;;;;;;;;;;;;17.45;64.96;98506.94;4246785;33;20010;-80
2022/09/29 07:56:32;;;;;;;;;;;;;;;17.64;64.50;98513.28;4240330;33;20021;-80
2022/09/29 07:59:01;;;;;;;;;;;;;;;17.69;64.29;98517.50;4241608;33;20626;-80
2022/09/29 08:01:28;;;;;;;;;;;;;;;17.60;64.98;98516.88;4246442;33;19990;-80
2022/09/29 08:03:55;;;;;;;;;;;;;;;17.62;64.32;98515.09;4240514;33;19997;-80
2022/09/29 08:06:22;;;;;;;;;;;;;;;17.44;65.53;98507.84;4239539;33;19998;-79
2022/09/29 08:08:49;;;;;;;;;;;;;;;17.64;64.52;98502.81;4246066;33;20042;-80
2022/09/29 08:11:29;;;;;;;;;;;;;;;17.90;63.62;98511.56;4240795;33;19986;-80
2022/09/29 08:13:58;;;;;;;;;;;;;;;18.31;63.37;98510.09;4250409;33;19993;-78
2022/09/29 08:16:25;;;;;;;;;;;;;;;18.61;61.84;98507.22;4252194;33;20020;-80
2022/09/29 08:18:52;;;;;;;;;;;;;;;18.99;62.05;98503.16;4251918;33;19997;-81
2022/09/29 08:21:20;;;;;;;;;;;;;;;18.91;61.41;98520.94;4244357;33;20283;-80
2022/09/29 08:23:47;;;;;;;;;;;;;;;18.76;62.28;98521.53;4243664;33;20009;-81
2022/09/29 08:26:15;;;;;;;;;;;;;;;19.24;60.35;98523.13;4244159;33;20461;-80
2022/09/29 08:28:42;;;;;;;;;;;;;;;19.44;60.62;98520.56;4251013;33;19982;-84
2022/09/29 08:31:13;;;;;;;;;;;;;;;19.72;57.77;98519.47;4251838;33;20026;-81
2022/09/29 08:33:40;;;;;;;;;;;;;;;19.88;59.03;98528.38;4239742;33;20016;-83
2022/09/29 08:36:13;;;;;;;;;;;;;;;19.65;61.54;98528.47;4251576;33;20008;-78
2022/09/29 08:38:41;;;;;;;;;;;;;;;19.71;58.96;98533.47;4232211;33;19986;-79
2022/09/29 08:41:09;;;;;;;;;;;;;;;19.54;60.47;98535.94;4237927;33;20002;-78
2022/09/29 08:43:37;;;;;;;;;;;;;;;19.78;60.83;98519.16;4237652;33;19993;-79
2022/09/29 08:46:08;;;;;;;;;;;;;;;20.13;60.01;98514.16;4238157;33;19981;-78
2022/09/29 08:48:40;;;;;;;;;;;;;;;20.02;58.15;98521.69;4236879;33;20343;-79
2022/09/29 08:51:28;;;;;;;;;;;;;;;20.30;56.48;98519.53;4261833;33;19982;-81
2022/09/29 08:54:34;;;;;;;;;;;;;;;19.80;60.20;98527.84;4259225;33;20021;-82
2022/09/29 08:57:06;;;;;;;;;;;;;;;20.25;56.81;98534.66;4264033;33;20012;-80
2022/09/29 08:59:32;;;;;;;;;;;;;;;20.29;59.72;98546.72;4265827;33;20016;-79
2022/09/29 09:02:18;;;;;;;;;;;;;;;20.36;58.49;98555.22;4266411;33;19994;-80
2022/09/29 09:04:57;;;;;;;;;;;;;;;20.55;57.00;98547.38;4267349;33;20359;-80
2022/09/29 09:07:27;;;;;;;;;;;;;;;20.57;57.56;98545.53;4265026;33;20001;-81
2022/09/29 09:09:58;;;;;;;;;;;;;;;20.52;57.52;98543.13;4259225;33;19994;-80
2022/09/29 09:12:31;;;;;;;;;;;;;;;20.46;58.30;98553.03;4254317;33;19989;-79
2022/09/29 09:15:01;;;;;;;;;;;;;;;20.79;58.13;98555.91;4266429;33;20005;-79
2022/09/29 09:17:31;;;;;;;;;;;;;;;20.75;55.61;98552.59;4254014;33;19982;-82
2022/09/29 09:20:07;;;;;;;;;;;;;;;20.69;58.10;98555.50;4262541;33;19996;-79
2022/09/29 09:22:52;;;;;;;;;;;;;;;21.09;55.87;98549.25;4267528;33;19981;-80
2022/09/29 09:25:32;;;;;;;;;;;;;;;21.23;56.95;98561.72;4256410;33;20630;-79
2022/09/29 09:28:18;;;;;;;;;;;;;;;21.00;54.63;98572.50;4265667;33;20007;-79
2022/09/29 09:30:50;;;;;;;;;;;;;;;21.00;55.58;98568.09;4259616;33;20000;-80
2022/09/29 09:33:37;;;;;;;;;;;;;;;21.10;55.78;98569.34;4263999;33;20012;-80
2022/09/29 09:36:05;;;;;;;;;;;;;;;21.30;53.63;98572.81;4265999;33;20330;-82
2022/09/29 09:38:51;;;;;;;;;;;;;;;21.34;53.01;98567.31;4256782;33;20048;-79
2022/09/29 09:41:19;;;;;;;;;;;;;;;21.22;55.10;98565.28;4254350;33;19981;-79
2022/09/29 09:43:47;;;;;;;;;;;;;;;21.06;53.50;98572.22;4264337;33;20045;-78
2022/09/29 09:46:20;;;;;;;;;;;;;;;21.12;54.86;98577.16;4267058;33;19993;-80
2022/09/29 09:48:54;;;;;;;;;;;;;;;21.18;55.38;98578.66;4268113;33;19993;-78
2022/09/29 09:51:20;;;;;;;;;;;;;;;21.47;54.35;98579.91;4268055;33;20001;-80
2022/09/29 09:53:47;;;;;;;;;;;;;;;21.51;52.43;98570.97;4254702;33;19977;-78
2022/09/29 09:56:17;;;;;;;;;;;;;;;21.21;55.68;98583.78;4265903;33;19990;-80
2022/09/29 09:58:59;;;;;;;;;;;;;;;21.49;52.97;98570.19;4268191;33;19993;-78
2022/09/29 10:01:26;;;;;;;;;;;;;;;21.67;51.86;98566.66;4266715;33;20745;-78
2022/09/29 10:03:54;;;;;;;;;;;;;;;21.60;53.31;98557.31;4266788;33;19996;-79
2022/09/29 10:06:20;;;;;;;;;;;;;;;21.92;50.37;98555.72;4259403;33;19989;-79
2022/09/29 10:08:47;;;;;;;;;;;;;;;21.60;54.23;98565.22;4259930;33;19997;-78
2022/09/29 10:11:18;;;;;;;;;;;;;;;21.10;53.50;98568.50;4264260;33;20421;-79
2022/09/29 10:13:44;;;;;;;;;;;;;;;21.92;49.34;98568.03;4253317;33;19985;-81
2022/09/29 10:16:16;;;;;;;;;;;;;;;22.14;49.61;98576.53;4264496;33;19985;-80
2022/09/29 10:18:45;;;;;;;;;;;;;;;22.08;49.92;98571.62;4265865;33;19981;-80
2022/09/29 10:21:19;;;;;;;;;;;;;;;21.22;53.92;98567.94;4259147;33;19985;-80
2022/09/29 10:23:49;;;;;;;;;;;;;;;21.74;52.99;98554.03;4264377;33;20306;-80
2022/09/29 10:26:16;;;;;;;;;;;;;;;21.48;55.08;98566.69;4263996;33;19989;-80
2022/09/29 10:28:45;;;;;;;;;;;;;;;21.39;54.85;98566.28;4266104;33;19984;-81
2022/09/29 10:31:17;;;;;;;;;;;;;;;21.98;49.88;98570.34;4266447;33;19989;-80
2022/09/29 10:33:51;;;;;;;;;;;;;;;21.57;54.21;98575.94;4265436;33;20030;-81
2022/09/29 10:36:20;;;;;;;;;;;;;;;21.56;52.13;98579.47;4260346;33;20008;-82
2022/09/29 10:38:50;;;;;;;;;;;;;;;21.71;53.83;98572.59;4252154;33;21286;-81
2022/09/29 10:41:18;;;;;;;;;;;;;;;22.36;49.24;98578.09;4264062;33;19993;-81
2022/09/29 10:43:46;;;;;;;;;;;;;;;22.10;46.88;98576.78;4257817;33;19985;-81
2022/09/29 10:46:39;;;;;;;;;;;;;;;22.35;48.38;98581.69;4257140;33;20012;-82
2022/09/29 10:49:08;;;;;;;;;;;;;;;22.38;47.50;98578.88;4254663;33;19985;-82
2022/09/29 10:51:35;;;;;;;;;;;;;;;22.13;49.03;98580.12;4255100;33;20037;-82
2022/09/29 10:54:07;;;;;;;;;;;;;;;21.97;48.87;98573.94;4254948;33;19985;-80
2022/09/29 10:56:34;;;;;;;;;;;;;;;22.08;47.67;98576.00;4263691;33;19989;-80
2022/09/29 10:59:01;;;;;;;;;;;;;;;22.08;52.25;98590.06;4264146;33;20007;-79
2022/09/29 11:01:32;;;;;;;;;;;;;;;22.15;51.28;98594.09;4265108;33;20017;-79
2022/09/29 11:04:02;;;;;;;;;;;;;;;21.96;50.39;98588.03;4260955;33;19991;-79
2022/09/29 11:06:30;;;;;;;;;;;;;;;22.42;47.66;98590.97;4265919;33;20012;-79
2022/09/29 11:08:59;;;;;;;;;;;;;;;22.23;50.15;98591.91;4262338;33;19990;-79
2022/09/29 11:11:28;;;;;;;;;;;;;;;22.09;51.04;98589.13;4257775;33;19985;-79
2022/09/29 11:13:55;;;;;;;;;;;;;;;22.34;48.52;98587.91;4259414;33;19981;-80
2022/09/29 11:16:25;;;;;;;;;;;;;;;22.06;51.71;98595.41;4259046;33;19993;-80
2022/09/29 11:18:53;;;;;;;;;;;;;;;21.74;51.83;98599.66;4264302;33;19989;-79
2022/09/29 11:21:23;;;;;;;;;;;;;;;21.54;49.93;98591.87;4256072;33;19993;-79
2022/09/29 11:24:02;;;;;;;;;;;;;;;21.86;47.06;98602.59;4252790;33;19982;-81
2022/09/29 11:26:32;;;;;;;;;;;;;;;21.74;49.26;98604.91;4263583;33;20000;-80
2022/09/29 11:29:18;;;;;;;;;;;;;;;21.34;51.00;98605.94;4263346;33;19981;-79
2022/09/29 11:31:55;;;;;;;;;;;;;;;21.57;51.31;98597.00;4260852;33;20008;-79
2022/09/29 11:34:25;;;;;;;;;;;;;;;21.41;50.60;98596.88;4263396;33;20058;-79
2022/09/29 11:37:12;;;;;;;;;;;;;;;21.68;49.36;98599.94;4271372;33;19989;-80
2022/09/29 11:39:44;;;;;;;;;;;;;;;21.21;52.53;98592.50;4272998;33;19993;-79
2022/09/29 11:42:27;;;;;;;;;;;;;;;21.39;51.35;98596.09;4270572;33;20007;-80
2022/09/29 11:44:54;;;;;;;;;;;;;;;21.13;52.77;98598.16;4273137;33;19973;-81
2022/09/29 11:47:40;;;;;;;;;;;;;;;20.94;55.28;98607.81;4271904;33;19993;-79
2022/09/29 11:50:07;;;;;;;;;;;;;;;20.91;54.56;98605.34;4271904;33;20001;-79
2022/09/29 11:52:54;;;;;;;;;;;;;;;21.04;54.78;98608.25;4274900;33;19988;-81
2022/09/29 11:55:26;;;;;;;;;;;;;;;21.11;53.96;98604.41;4271284;33;19993;-81
2022/09/29 11:57:53;;;;;;;;;;;;;;;21.22;52.13;98617.94;4273872;33;20369;-81
2022/09/29 12:00:20;;;;;;;;;;;;;;;20.86;53.34;98620.47;4274971;33;20008;-81
2022/09/29 12:02:47;;;;;;;;;;;;;;;20.78;54.38;98620.81;4269159;33;20284;-79
2022/09/29 12:05:34;;;;;;;;;;;;;;;21.08;53.04;98615.06;4274830;33;19998;-79
2022/09/29 12:08:03;;;;;;;;;;;;;;;20.92;54.38;98616.72;4275134;33;20001;-80
2022/09/29 12:10:48;;;;;;;;;;;;;;;20.42;56.27;98616.25;4273254;33;20023;-79
2022/09/29 12:13:28;;;;;;;;;;;;;;;20.34;55.83;98618.34;4273436;33;20004;-80
2022/09/29 12:15:56;;;;;;;;;;;;;;;20.41;56.46;98606.63;4273719;33;19981;-80
2022/09/29 12:18:31;;;;;;;;;;;;;;;20.81;53.64;98599.66;4258505;33;20000;-80
2022/09/29 12:20:57;;;;;;;;;;;;;;;21.03;52.65;98601.28;4274876;33;20027;-80
2022/09/29 12:23:25;;;;;;;;;;;;;;;20.94;53.51;98606.97;4274069;33;20011;-80
2022/09/29 12:25:56;;;;;;;;;;;;;;;20.93;54.68;98600.00;4271903;33;20037;-80
2022/09/29 12:28:28;;;;;;;;;;;;;;;21.14;51.69;98609.53;4274295;33;20048;-80
2022/09/29 12:30:57;;;;;;;;;;;;;;;21.02;51.40;98604.84;4272985;33;20090;-80
2022/09/29 12:33:28;;;;;;;;;;;;;;;21.09;52.38;98606.25;4274064;33;20010;-81
2022/09/29 12:39:02;;;;;;;;;;;;;;;21.13;52.15;98603.41;4273287;33;20322;-80
2022/09/29 12:41:37;;;;;;;;;;;;;;;20.95;54.82;98619.19;4273073;33;19993;-79
2022/09/29 12:44:16;;;;;;;;;;;;;;;20.79;55.28;98630.41;4272013;33;19992;-79
2022/09/29 12:46:44;;;;;;;;;;;;;;;20.83;55.70;98637.22;4276021;33;20374;-79
2022/09/29 12:49:27;;;;;;;;;;;;;;;20.51;55.65;98640.41;4271369;33;20844;-79
2022/09/29 12:51:54;;;;;;;;;;;;;;;20.05;55.66;98648.50;4270196;33;20001;-79
2022/09/29 12:54:33;;;;;;;;;;;;;;;20.20;58.12;98639.13;3979234;33;10000628;-80
2022/09/29 12:57:03;;;;;;;;;;;;;;;20.42;58.25;98647.78;4274606;33;19996;-80
2022/09/29 12:59:37;;;;;;;;;;;;;;;20.42;57.82;98653.06;4279997;33;19977;-81
2022/09/29 13:02:10;;;;;;;;;;;;;;;20.04;58.34;98656.41;4280998;33;20001;-79
2022/09/29 13:04:50;;;;;;;;;;;;;;;20.10;58.03;98645.66;4266919;33;20061;-79
2022/09/29 13:07:27;;;;;;;;;;;;;;;20.61;56.92;98636.47;4261654;33;19989;-81
2022/09/29 13:09:55;;;;;;;;;;;;;;;20.92;54.57;98632.50;4261246;33;20021;-79
2022/09/29 13:12:21;;;;;;;;;;;;;;;21.00;54.88;98627.75;4266611;33;19985;-79
2022/09/29 13:15:03;;;;;;;;;;;;;;;21.32;52.43;98629.72;4259856;33;19996;-79
2022/09/29 13:17:37;;;;;;;;;;;;;;;21.19;53.41;98633.88;4268404;33;19989;-79
2022/09/29 13:20:04;;;;;;;;;;;;;;;21.23;51.68;98635.41;4257696;33;19981;-79
2022/09/29 13:22:39;;;;;;;;;;;;;;;21.16;51.70;98631.38;4260015;33;20001;-79
2022/09/29 13:25:11;;;;;;;;;;;;;;;21.10;52.48;98624.62;4264681;33;20011;-78
2022/09/29 13:27:38;;;;;;;;;;;;;;;21.25;52.48;98628.31;4263759;33;19985;-78
2022/09/29 13:30:05;;;;;;;;;;;;;;;21.27;51.73;98629.06;4258565;33;20037;-78
2022/09/29 13:32:32;;;;;;;;;;;;;;;21.23;52.27;98640.69;4253998;33;20433;-81
2022/09/29 13:34:59;;;;;;;;;;;;;;;20.94;51.50;98638.56;4265348;33;19998;-80
2022/09/29 13:37:27;;;;;;;;;;;;;;;20.77;52.40;98637.53;4264326;33;20002;-82
2022/09/29 13:40:03;;;;;;;;;;;;;;;21.03;52.55;98638.13;4264572;33;19996;-81
2022/09/29 13:42:44;;;;;;;;;;;;;;;21.12;51.31;98643.81;4266475;33;20000;-81
2022/09/29 13:45:17;;;;;;;;;;;;;;;21.11;50.93;98651.78;4254290;33;19985;-80
2022/09/29 13:47:48;;;;;;;;;;;;;;;20.67;52.87;98649.38;4253939;33;19985;-80
2022/09/29 13:50:33;;;;;;;;;;;;;;;20.64;55.11;98646.88;4262157;33;19973;-79
2022/09/29 13:53:19;;;;;;;;;;;;;;;20.66;55.44;98645.03;4255339;33;19988;-78
2022/09/29 13:55:52;;;;;;;;;;;;;;;20.76;54.97;98646.31;4268075;33;19989;-79
2022/09/29 13:58:23;;;;;;;;;;;;;;;20.75;54.78;98649.88;4255654;33;19993;-79
2022/09/29 14:00:50;;;;;;;;;;;;;;;20.67;55.86;98646.72;4253763;33;19993;-79
2022/09/29 14:03:21;;;;;;;;;;;;;;;20.77;54.54;98647.19;4264421;33;19985;-79
2022/09/29 14:05:52;;;;;;;;;;;;;;;20.49;55.00;98643.13;4265159;33;20008;-80
2022/09/29 14:08:21;;;;;;;;;;;;;;;20.67;55.36;98641.47;4258956;33;20003;-80
2022/09/29 14:10:50;;;;;;;;;;;;;;;20.71;55.60;98643.06;4264497;33;19985;-79
2022/09/29 14:13:26;;;;;;;;;;;;;;;21.09;50.76;98648.34;4265823;33;20009;-80
2022/09/29 14:16:13;;;;;;;;;;;;;;;20.62;53.59;98654.00;4257635;33;20339;-81
2022/09/29 14:18:41;;;;;;;;;;;;;;;20.69;52.29;98655.41;4258023;33;20725;-80
2022/09/29 14:21:09;;;;;;;;;;;;;;;20.75;53.55;98654.31;4259903;33;19988;-81
2022/09/29 14:23:44;;;;;;;;;;;;;;;20.64;54.98;98653.00;4259681;33;19991;-80
2022/09/29 14:26:30;;;;;;;;;;;;;;;20.67;54.61;98657.25;4253252;33;19986;-81
2022/09/29 14:28:58;;;;;;;;;;;;;;;20.58;55.30;98657.66;4243366;33;20054;-80
2022/09/29 14:31:26;;;;;;;;;;;;;;;20.80;55.23;98663.66;4221724;33;20005;-81
2022/09/29 14:33:53;;;;;;;;;;;;;;;20.98;54.37;98671.69;4221432;33;20367;-80
2022/09/29 14:36:21;;;;;;;;;;;;;;;20.88;54.11;98677.34;4210774;33;19990;-80
2022/09/29 14:38:50;;;;;;;;;;;;;;;21.04;53.12;98681.94;4223253;33;20009;-80
2022/09/29 14:41:41;;;;;;;;;;;;;;;20.79;55.06;98683.00;4200653;34;20031;-80
2022/09/29 14:44:09;;;;;;;;;;;;;;;20.78;54.89;98686.56;4214438;33;19998;-82
2022/09/29 14:52:29;;;;;;;;;;;;;;;20.72;54.67;98681.59;4225361;33;19982;-81
2022/09/29 14:55:17;;;;;;;;;;;;;;;20.58;54.81;98681.31;4224999;33;19990;-81
2022/09/29 14:58:02;;;;;;;;;;;;;;;20.69;54.43;98678.25;4210695;33;19991;-82
2022/09/29 15:00:45;;;;;;;;;;;;;;;20.76;54.25;98680.53;4210927;33;19991;-81
2022/09/29 15:03:14;;;;;;;;;;;;;;;21.12;51.62;98685.06;4223050;33;19982;-81
2022/09/29 15:06:14;;;;;;;;;;;;;;;20.81;53.64;98689.06;4211809;33;20477;-81
2022/09/29 15:08:42;;;;;;;;;;;;;;;20.68;54.88;98685.28;4225304;33;20029;-80
2022/09/29 15:11:23;;;;;;;;;;;;;;;20.76;54.14;98677.03;4224830;33;19994;-81
2022/09/29 15:13:50;;;;;;;;;;;;;;;20.53;54.46;98671.00;4211596;33;20311;-80
2022/09/29 15:16:23;;;;;;;;;;;;;;;20.61;54.45;98668.91;4223137;33;20038;-79
2022/09/29 15:18:49;;;;;;;;;;;;;;;20.48;56.16;98672.09;4217576;33;20013;-78
2022/09/29 15:21:17;;;;;;;;;;;;;;;20.44;56.77;98677.47;4215478;33;19987;-78
2022/09/29 15:23:48;;;;;;;;;;;;;;;20.48;56.21;98677.34;3643857;33;10010062;-78
2022/09/29 15:26:14;;;;;;;;;;;;;;;20.55;56.67;98692.84;4247202;33;20333;-78
2022/09/29 15:28:42;;;;;;;;;;;;;;;20.65;55.89;98680.16;4245300;33;20025;-78
2022/09/29 15:31:14;;;;;;;;;;;;;;;20.43;56.95;98675.78;4238920;33;19998;-78
2022/09/29 15:33:41;;;;;;;;;;;;;;;20.54;56.35;98687.63;4241684;33;20005;-78
2022/09/29 15:36:19;;;;;;;;;;;;;;;20.57;55.69;98682.25;4248694;33;19982;-78
2022/09/29 15:38:50;;;;;;;;;;;;;;;20.61;56.07;98694.31;4249161;33;20134;-80
2022/09/29 15:41:18;;;;;;;;;;;;;;;20.55;56.25;98695.47;4246505;33;19985;-77
2022/09/29 15:43:56;;;;;;;;;;;;;;;20.63;55.78;98695.13;4245430;33;19994;-79
2022/09/29 15:46:26;;;;;;;;;;;;;;;20.48;55.88;98693.97;4249813;33;19974;-81
2022/09/29 15:49:02;;;;;;;;;;;;;;;20.37;55.76;98699.69;4234572;33;19998;-80
2022/09/29 15:51:30;;;;;;;;;;;;;;;20.42;56.23;98699.47;4238928;33;19994;-80
2022/09/29 15:53:59;;;;;;;;;;;;;;;20.25;57.71;98708.09;4249990;33;19993;-81
2022/09/29 15:56:25;;;;;;;;;;;;;;;20.26;57.57;98712.44;4245044;33;20352;-82
2022/09/29 15:58:57;;;;;;;;;;;;;;;20.02;58.84;98721.31;4252152;33;20807;-80
2022/09/29 16:01:24;;;;;;;;;;;;;;;20.22;58.19;98718.72;4240840;33;19986;-80
2022/09/29 16:03:56;;;;;;;;;;;;;;;20.24;57.26;98727.41;4250373;33;19990;-80
2022/09/29 16:06:26;;;;;;;;;;;;;;;20.32;57.27;98725.31;4253051;33;19982;-81
2022/09/29 16:09:04;;;;;;;;;;;;;;;20.36;56.79;98731.31;4243788;33;20021;-80
2022/09/29 16:11:32;;;;;;;;;;;;;;;20.20;56.85;98731.09;4245346;33;20001;-80
2022/09/29 16:14:06;;;;;;;;;;;;;;;20.22;56.96;98729.22;4250633;33;19981;-81
2022/09/29 16:16:35;;;;;;;;;;;;;;;20.09;57.64;98743.78;4250909;33;19986;-82
2022/09/29 16:19:05;;;;;;;;;;;;;;;19.89;58.53;98752.47;4245102;33;20012;-82
2022/09/29 16:21:34;;;;;;;;;;;;;;;20.09;57.55;98744.66;4242720;33;20014;-80
2022/09/29 16:24:16;;;;;;;;;;;;;;;19.70;58.10;98752.34;4250460;33;20272;-81
2022/09/29 16:26:53;;;;;;;;;;;;;;;19.66;57.93;98746.34;4247291;33;19982;-80
2022/09/29 16:29:25;;;;;;;;;;;;;;;19.87;57.22;98734.13;4247202;33;19996;-80
2022/09/29 16:31:53;;;;;;;;;;;;;;;19.95;57.01;98737.31;4254383;33;20390;-80
2022/09/29 16:34:19;;;;;;;;;;;;;;;19.83;57.74;98737.81;4242984;33;20004;-80
2022/09/29 16:36:50;;;;;;;;;;;;;;;19.55;58.69;98747.62;4241611;33;19990;-80
2022/09/29 16:39:18;;;;;;;;;;;;;;;19.62;58.35;98743.84;4250572;33;20009;-80
2022/09/29 16:41:56;;;;;;;;;;;;;;;19.66;57.77;98740.25;4250564;33;19998;-81
2022/09/29 16:44:25;;;;;;;;;;;;;;;19.56;58.19;98741.47;4251229;33;19993;-80
2022/09/29 16:46:51;;;;;;;;;;;;;;;19.54;58.21;98740.69;4246111;33;19996;-82
2022/09/29 16:49:19;;;;;;;;;;;;;;;19.42;58.45;98737.59;4247405;33;20314;-82
2022/09/29 16:51:47;;;;;;;;;;;;;;;19.34;58.82;98744.91;4250801;33;20001;-82
2022/09/29 16:54:15;;;;;;;;;;;;;;;19.20;59.32;98749.78;4242733;33;20008;-81
2022/09/29 16:56:44;;;;;;;;;;;;;;;19.22;59.30;98742.72;4250722;33;19977;-82
2022/09/29 16:59:12;;;;;;;;;;;;;;;18.92;60.20;98739.44;4254317;33;20373;-82
2022/09/29 17:01:40;;;;;;;;;;;;;;;19.02;59.60;98733.81;4249788;33;20030;-82
2022/09/29 17:04:07;;;;;;;;;;;;;;;19.01;59.59;98732.09;4253664;33;20053;-82
2022/09/29 17:06:34;;;;;;;;;;;;;;;18.69;60.36;98732.34;4252473;33;19993;-82
2022/09/29 17:09:02;;;;;;;;;;;;;;;18.65;60.66;98743.84;4244038;33;20734;-82
2022/09/29 17:11:29;;;;;;;;;;;;;;;18.65;60.46;98743.84;4250088;33;20061;-81
2022/09/29 17:13:56;;;;;;;;;;;;;;;18.73;60.13;98750.59;4246097;33;19993;-81
2022/09/29 17:16:23;;;;;;;;;;;;;;;18.82;59.60;98762.50;4240722;33;20004;-80
2022/09/29 17:18:51;;;;;;;;;;;;;;;18.62;60.29;98765.78;4248933;33;20777;-78
2022/09/29 17:21:19;;;;;;;;;;;;;;;18.68;59.92;98762.09;4248680;33;20308;-79
2022/09/29 17:23:45;;;;;;;;;;;;;;;18.64;60.03;98763.97;4244049;33;19975;-79
2022/09/29 17:29:02;;;;;;;;;;;;;;;18.71;59.82;98754.12;4252658;33;20014;-80
2022/09/29 17:31:29;;;;;;;;;;;;;;;18.52;60.05;98754.75;4247286;33;20356;-85
2022/09/29 17:33:56;;;;;;;;;;;;;;;18.47;60.08;98759.28;4247688;33;20012;-87
2022/09/29 17:36:23;;;;;;;;;;;;;;;18.29;60.40;98762.53;4252309;33;19982;-85
2022/09/29 17:38:50;;;;;;;;;;;;;;;18.34;60.26;98750.13;4252224;33;20049;-83
2022/09/29 17:41:17;;;;;;;;;;;;;;;18.50;59.66;98746.06;4252503;33;20038;-83
2022/09/29 17:43:46;;;;;;;;;;;;;;;18.32;60.37;98746.72;4252245;33;20726;-80
2022/09/29 17:46:13;;;;;;;;;;;;;;;18.32;60.02;98758.03;3062575;33;10015685;-83
2022/09/29 17:48:41;;;;;;;;;;;;;;;18.08;60.58;98769.31;4222207;33;20008;-85
2022/09/29 17:51:09;;;;;;;;;;;;;;;18.16;60.25;98771.69;4237363;33;20324;-83
2022/09/29 17:53:36;;;;;;;;;;;;;;;18.14;60.02;98771.72;4244305;33;19977;-83
2022/09/29 17:56:03;;;;;;;;;;;;;;;18.13;59.91;98781.34;4264614;33;20095;-84
2022/09/29 17:58:30;;;;;;;;;;;;;;;18.24;59.44;98780.16;4260977;33;20032;-82
2022/09/29 18:00:57;;;;;;;;;;;;;;;18.26;59.22;98783.59;4266753;33;20009;-82
2022/09/29 18:03:24;;;;;;;;;;;;;;;18.31;59.02;98781.66;4259941;33;19986;-83
2022/09/29 18:05:55;;;;;;;;;;;;;;;18.26;59.12;98773.09;4266802;33;20407;-84
2022/09/29 18:08:22;;;;;;;;;;;;;;;18.17;59.11;98773.41;4266410;33;19997;-79
2022/09/29 18:10:51;;;;;;;;;;;;;;;17.86;60.30;98758.63;4267355;33;19973;-80
2022/09/29 18:13:18;;;;;;;;;;;;;;;17.98;60.13;98770.50;4264205;33;19992;-81
2022/09/29 18:15:45;;;;;;;;;;;;;;;17.73;60.82;98778.22;4266229;33;19993;-81
2022/09/29 18:18:16;;;;;;;;;;;;;;;17.90;60.44;98783.84;4265057;33;21846;-80
2022/09/29 18:20:46;;;;;;;;;;;;;;;17.94;60.34;98798.53;4266209;33;19985;-81
2022/09/29 18:23:19;;;;;;;;;;;;;;;17.90;60.35;98796.94;4254261;33;20041;-81
2022/09/29 18:25:48;;;;;;;;;;;;;;;18.01;59.96;98810.53;4258754;33;20060;-80
2022/09/29 18:28:17;;;;;;;;;;;;;;;17.94;60.44;98814.25;4265125;33;20522;-81
2022/09/29 18:30:46;;;;;;;;;;;;;;;17.70;61.22;98809.72;4258734;33;20009;-86
2022/09/29 18:33:15;;;;;;;;;;;;;;;18.02;59.74;98807.00;4259380;33;20045;-83
2022/09/29 18:35:44;;;;;;;;;;;;;;;17.98;60.10;98805.41;4260780;33;20069;-81
2022/09/29 18:38:11;;;;;;;;;;;;;;;17.60;60.81;98796.87;4265726;33;19997;-80
2022/09/29 18:40:47;;;;;;;;;;;;;;;17.37;61.31;98804.56;4241640;33;20000;-88
2022/09/29 18:43:24;;;;;;;;;;;;;;;17.56;60.61;98808.34;4257368;33;19994;-86